sensor_id;sensor_type;location;lat;lon;timestamp;P1;durP1;ratioP1;P2;durP2;ratioP2
25535;SDS011;13431;51.352;6.412;2023-08-08T00:01:54;1.77;;;1.52;;
25535;SDS011;13431;51.352;6.412;2023-08-08T00:04:22;1.65;;;1.40;;
25535;SDS011;13431;51.352;6.412;2023-08-08T00:06:50;2.00;;;1.23;;
25535;SDS011;13431;51.352;6.412;2023-08-08T00:09:17;2.15;;;1.58;;
25535;SDS011;13431;51.352;6.412;2023-08-08T00:11:44;1.65;;;1.52;;
25535;SDS011;13431;51.352;6.412;2023-08-08T00:14:12;2.70;;;1.52;;
25535;SDS011;13431;51.352;6.412;2023-08-08T00:16:39;1.75;;;1.65;;
25535;SDS011;13431;51.352;6.412;2023-08-08T00:19:06;2.47;;;1.73;;
25535;SDS011;13431;51.352;6.412;2023-08-08T00:21:34;2.28;;;1.30;;
25535;SDS011;13431;51.352;6.412;2023-08-08T00:24:01;2.30;;;1.77;;
25535;SDS011;13431;51.352;6.412;2023-08-08T00:26:28;3.60;;;1.52;;
25535;SDS011;13431;51.352;6.412;2023-08-08T00:28:56;2.75;;;1.70;;
25535;SDS011;13431;51.352;6.412;2023-08-08T00:31:23;4.25;;;2.03;;
25535;SDS011;13431;51.352;6.412;2023-08-08T00:33:51;2.13;;;1.50;;
25535;SDS011;13431;51.352;6.412;2023-08-08T00:36:18;2.08;;;1.85;;
25535;SDS011;13431;51.352;6.412;2023-08-08T00:38:46;1.83;;;1.38;;
25535;SDS011;13431;51.352;6.412;2023-08-08T00:41:13;2.88;;;1.60;;
25535;SDS011;13431;51.352;6.412;2023-08-08T00:43:40;3.30;;;2.08;;
25535;SDS011;13431;51.352;6.412;2023-08-08T00:46:10;2.05;;;1.88;;
25535;SDS011;13431;51.352;6.412;2023-08-08T00:48:37;2.92;;;1.50;;
25535;SDS011;13431;51.352;6.412;2023-08-08T00:51:05;2.33;;;1.67;;
25535;SDS011;13431;51.352;6.412;2023-08-08T00:53:32;2.85;;;1.60;;
25535;SDS011;13431;51.352;6.412;2023-08-08T00:56:00;1.70;;;1.60;;
25535;SDS011;13431;51.352;6.412;2023-08-08T00:58:27;1.58;;;1.48;;
25535;SDS011;13431;51.352;6.412;2023-08-08T01:00:55;1.75;;;1.65;;
25535;SDS011;13431;51.352;6.412;2023-08-08T01:03:26;1.83;;;1.65;;
25535;SDS011;13431;51.352;6.412;2023-08-08T01:06:03;1.65;;;1.55;;
25535;SDS011;13431;51.352;6.412;2023-08-08T01:08:36;1.63;;;1.50;;
25535;SDS011;13431;51.352;6.412;2023-08-08T01:11:09;1.58;;;1.48;;
25535;SDS011;13431;51.352;6.412;2023-08-08T01:13:37;2.97;;;1.50;;
25535;SDS011;13431;51.352;6.412;2023-08-08T01:16:05;1.63;;;1.50;;
25535;SDS011;13431;51.352;6.412;2023-08-08T01:18:33;1.45;;;1.35;;
25535;SDS011;13431;51.352;6.412;2023-08-08T01:21:01;1.40;;;1.30;;
25535;SDS011;13431;51.352;6.412;2023-08-08T01:23:34;1.80;;;1.50;;
25535;SDS011;13431;51.352;6.412;2023-08-08T01:26:10;2.00;;;1.50;;
25535;SDS011;13431;51.352;6.412;2023-08-08T01:28:38;2.42;;;1.85;;
25535;SDS011;13431;51.352;6.412;2023-08-08T01:31:06;1.67;;;1.40;;
25535;SDS011;13431;51.352;6.412;2023-08-08T01:33:33;1.80;;;1.30;;
25535;SDS011;13431;51.352;6.412;2023-08-08T01:36:06;2.38;;;1.67;;
25535;SDS011;13431;51.352;6.412;2023-08-08T01:38:41;1.63;;;1.52;;
25535;SDS011;13431;51.352;6.412;2023-08-08T01:41:11;2.10;;;1.40;;
25535;SDS011;13431;51.352;6.412;2023-08-08T01:43:39;1.40;;;1.30;;
25535;SDS011;13431;51.352;6.412;2023-08-08T01:46:08;1.65;;;1.52;;
25535;SDS011;13431;51.352;6.412;2023-08-08T01:48:36;1.20;;;1.20;;
25535;SDS011;13431;51.352;6.412;2023-08-08T01:51:03;1.67;;;1.38;;
25535;SDS011;13431;51.352;6.412;2023-08-08T01:53:31;1.30;;;1.20;;
25535;SDS011;13431;51.352;6.412;2023-08-08T01:55:58;1.42;;;1.35;;
25535;SDS011;13431;51.352;6.412;2023-08-08T01:58:26;1.52;;;1.27;;
25535;SDS011;13431;51.352;6.412;2023-08-08T02:00:53;1.10;;;1.00;;
25535;SDS011;13431;51.352;6.412;2023-08-08T02:03:20;0.95;;;0.95;;
25535;SDS011;13431;51.352;6.412;2023-08-08T02:05:48;1.92;;;1.38;;
25535;SDS011;13431;51.352;6.412;2023-08-08T02:08:16;1.40;;;1.30;;
25535;SDS011;13431;51.352;6.412;2023-08-08T02:10:45;1.65;;;1.17;;
25535;SDS011;13431;51.352;6.412;2023-08-08T02:13:13;1.58;;;1.23;;
25535;SDS011;13431;51.352;6.412;2023-08-08T02:15:40;1.35;;;1.25;;
25535;SDS011;13431;51.352;6.412;2023-08-08T02:18:07;1.33;;;1.13;;
25535;SDS011;13431;51.352;6.412;2023-08-08T02:20:36;1.02;;;1.02;;
25535;SDS011;13431;51.352;6.412;2023-08-08T02:23:04;1.00;;;1.00;;
25535;SDS011;13431;51.352;6.412;2023-08-08T02:25:32;1.15;;;1.10;;
25535;SDS011;13431;51.352;6.412;2023-08-08T02:27:59;1.08;;;1.08;;
25535;SDS011;13431;51.352;6.412;2023-08-08T02:30:26;1.38;;;1.13;;
25535;SDS011;13431;51.352;6.412;2023-08-08T02:32:54;1.00;;;1.00;;
25535;SDS011;13431;51.352;6.412;2023-08-08T02:35:21;1.40;;;0.93;;
25535;SDS011;13431;51.352;6.412;2023-08-08T02:37:49;0.80;;;0.80;;
25535;SDS011;13431;51.352;6.412;2023-08-08T02:40:16;1.10;;;1.00;;
25535;SDS011;13431;51.352;6.412;2023-08-08T02:42:44;0.98;;;0.98;;
25535;SDS011;13431;51.352;6.412;2023-08-08T02:45:11;1.10;;;1.10;;
25535;SDS011;13431;51.352;6.412;2023-08-08T02:47:39;1.20;;;1.10;;
25535;SDS011;13431;51.352;6.412;2023-08-08T02:50:06;1.20;;;1.20;;
25535;SDS011;13431;51.352;6.412;2023-08-08T02:52:34;1.02;;;0.98;;
25535;SDS011;13431;51.352;6.412;2023-08-08T02:55:01;1.10;;;1.10;;
25535;SDS011;13431;51.352;6.412;2023-08-08T02:57:29;1.00;;;1.00;;
25535;SDS011;13431;51.352;6.412;2023-08-08T02:59:57;0.80;;;0.80;;
25535;SDS011;13431;51.352;6.412;2023-08-08T03:02:25;1.00;;;1.00;;
25535;SDS011;13431;51.352;6.412;2023-08-08T03:04:52;1.13;;;1.02;;
25535;SDS011;13431;51.352;6.412;2023-08-08T03:07:22;0.93;;;0.93;;
25535;SDS011;13431;51.352;6.412;2023-08-08T03:09:50;1.20;;;1.10;;
25535;SDS011;13431;51.352;6.412;2023-08-08T03:12:17;1.08;;;1.00;;
25535;SDS011;13431;51.352;6.412;2023-08-08T03:14:45;1.02;;;0.90;;
25535;SDS011;13431;51.352;6.412;2023-08-08T03:17:13;0.98;;;0.90;;
25535;SDS011;13431;51.352;6.412;2023-08-08T03:19:41;0.90;;;0.90;;
25535;SDS011;13431;51.352;6.412;2023-08-08T03:22:09;1.63;;;1.13;;
25535;SDS011;13431;51.352;6.412;2023-08-08T03:24:37;1.17;;;1.17;;
25535;SDS011;13431;51.352;6.412;2023-08-08T03:27:05;0.80;;;0.80;;
25535;SDS011;13431;51.352;6.412;2023-08-08T03:29:32;1.13;;;0.88;;
25535;SDS011;13431;51.352;6.412;2023-08-08T03:31:59;1.10;;;0.90;;
25535;SDS011;13431;51.352;6.412;2023-08-08T03:34:30;1.00;;;1.00;;
25535;SDS011;13431;51.352;6.412;2023-08-08T03:36:58;1.10;;;1.10;;
25535;SDS011;13431;51.352;6.412;2023-08-08T03:39:26;1.92;;;1.02;;
25535;SDS011;13431;51.352;6.412;2023-08-08T03:41:54;0.93;;;0.93;;
25535;SDS011;13431;51.352;6.412;2023-08-08T03:44:21;1.00;;;1.00;;
25535;SDS011;13431;51.352;6.412;2023-08-08T03:46:48;1.30;;;1.20;;
25535;SDS011;13431;51.352;6.412;2023-08-08T03:49:18;2.22;;;1.30;;
25535;SDS011;13431;51.352;6.412;2023-08-08T03:51:47;1.38;;;1.10;;
25535;SDS011;13431;51.352;6.412;2023-08-08T03:54:16;4.75;;;1.40;;
25535;SDS011;13431;51.352;6.412;2023-08-08T03:56:44;1.02;;;1.02;;
25535;SDS011;13431;51.352;6.412;2023-08-08T03:59:12;1.48;;;1.38;;
25535;SDS011;13431;51.352;6.412;2023-08-08T04:01:39;1.63;;;0.90;;
25535;SDS011;13431;51.352;6.412;2023-08-08T04:04:06;1.08;;;1.08;;
25535;SDS011;13431;51.352;6.412;2023-08-08T04:06:34;1.33;;;1.02;;
25535;SDS011;13431;51.352;6.412;2023-08-08T04:09:01;1.08;;;0.90;;
25535;SDS011;13431;51.352;6.412;2023-08-08T04:11:28;1.00;;;1.00;;
25535;SDS011;13431;51.352;6.412;2023-08-08T04:13:56;1.27;;;1.17;;
25535;SDS011;13431;51.352;6.412;2023-08-08T04:16:23;1.08;;;1.00;;
25535;SDS011;13431;51.352;6.412;2023-08-08T04:18:52;1.00;;;1.00;;
25535;SDS011;13431;51.352;6.412;2023-08-08T04:21:20;1.40;;;1.30;;
25535;SDS011;13431;51.352;6.412;2023-08-08T04:23:47;1.55;;;1.17;;
25535;SDS011;13431;51.352;6.412;2023-08-08T04:26:14;1.38;;;1.23;;
25535;SDS011;13431;51.352;6.412;2023-08-08T04:28:42;2.97;;;1.55;;
25535;SDS011;13431;51.352;6.412;2023-08-08T04:31:09;2.75;;;1.38;;
25535;SDS011;13431;51.352;6.412;2023-08-08T04:33:39;2.90;;;1.17;;
25535;SDS011;13431;51.352;6.412;2023-08-08T04:36:06;3.97;;;1.35;;
25535;SDS011;13431;51.352;6.412;2023-08-08T04:38:34;2.45;;;1.33;;
25535;SDS011;13431;51.352;6.412;2023-08-08T04:41:01;1.42;;;1.33;;
25535;SDS011;13431;51.352;6.412;2023-08-08T04:43:28;1.45;;;1.15;;
25535;SDS011;13431;51.352;6.412;2023-08-08T04:45:56;2.78;;;1.13;;
25535;SDS011;13431;51.352;6.412;2023-08-08T04:48:23;1.35;;;1.20;;
25535;SDS011;13431;51.352;6.412;2023-08-08T04:50:50;1.20;;;1.10;;
25535;SDS011;13431;51.352;6.412;2023-08-08T04:53:18;2.63;;;1.40;;
25535;SDS011;13431;51.352;6.412;2023-08-08T04:55:45;1.48;;;1.30;;
25535;SDS011;13431;51.352;6.412;2023-08-08T04:58:12;2.15;;;1.50;;
25535;SDS011;13431;51.352;6.412;2023-08-08T05:00:40;2.53;;;1.30;;
25535;SDS011;13431;51.352;6.412;2023-08-08T05:03:07;1.65;;;1.50;;
25535;SDS011;13431;51.352;6.412;2023-08-08T05:05:34;1.33;;;1.15;;
25535;SDS011;13431;51.352;6.412;2023-08-08T05:08:02;1.55;;;1.20;;
25535;SDS011;13431;51.352;6.412;2023-08-08T05:10:29;1.50;;;1.17;;
25535;SDS011;13431;51.352;6.412;2023-08-08T05:12:57;1.45;;;1.30;;
25535;SDS011;13431;51.352;6.412;2023-08-08T05:15:25;2.10;;;1.30;;
25535;SDS011;13431;51.352;6.412;2023-08-08T05:17:52;2.03;;;1.30;;
25535;SDS011;13431;51.352;6.412;2023-08-08T05:20:21;1.42;;;1.08;;
25535;SDS011;13431;51.352;6.412;2023-08-08T05:22:49;1.20;;;1.10;;
25535;SDS011;13431;51.352;6.412;2023-08-08T05:25:16;1.27;;;1.17;;
25535;SDS011;13431;51.352;6.412;2023-08-08T05:27:44;2.47;;;1.67;;
25535;SDS011;13431;51.352;6.412;2023-08-08T05:30:11;1.20;;;1.10;;
25535;SDS011;13431;51.352;6.412;2023-08-08T05:32:38;2.80;;;1.30;;
25535;SDS011;13431;51.352;6.412;2023-08-08T05:35:06;1.70;;;1.60;;
25535;SDS011;13431;51.352;6.412;2023-08-08T05:37:34;2.65;;;1.45;;
25535;SDS011;13431;51.352;6.412;2023-08-08T05:40:02;1.70;;;1.60;;
25535;SDS011;13431;51.352;6.412;2023-08-08T05:42:32;1.75;;;1.58;;
25535;SDS011;13431;51.352;6.412;2023-08-08T05:45:00;2.72;;;1.60;;
25535;SDS011;13431;51.352;6.412;2023-08-08T05:47:27;1.70;;;1.52;;
25535;SDS011;13431;51.352;6.412;2023-08-08T05:49:55;3.40;;;1.60;;
25535;SDS011;13431;51.352;6.412;2023-08-08T05:52:22;1.60;;;1.50;;
25535;SDS011;13431;51.352;6.412;2023-08-08T05:54:50;1.98;;;1.40;;
25535;SDS011;13431;51.352;6.412;2023-08-08T05:57:17;2.97;;;1.73;;
25535;SDS011;13431;51.352;6.412;2023-08-08T05:59:44;1.92;;;1.63;;
25535;SDS011;13431;51.352;6.412;2023-08-08T06:02:11;2.30;;;1.58;;
25535;SDS011;13431;51.352;6.412;2023-08-08T06:04:39;2.33;;;1.80;;
25535;SDS011;13431;51.352;6.412;2023-08-08T06:07:06;2.55;;;2.30;;
25535;SDS011;13431;51.352;6.412;2023-08-08T06:09:36;2.72;;;1.75;;
25535;SDS011;13431;51.352;6.412;2023-08-08T06:12:04;3.00;;;2.03;;
25535;SDS011;13431;51.352;6.412;2023-08-08T06:14:32;2.30;;;2.10;;
25535;SDS011;13431;51.352;6.412;2023-08-08T06:16:59;2.65;;;2.33;;
25535;SDS011;13431;51.352;6.412;2023-08-08T06:19:26;2.67;;;2.20;;
25535;SDS011;13431;51.352;6.412;2023-08-08T06:21:54;4.43;;;2.55;;
25535;SDS011;13431;51.352;6.412;2023-08-08T06:24:21;3.28;;;2.28;;
25535;SDS011;13431;51.352;6.412;2023-08-08T06:26:48;2.25;;;2.05;;
25535;SDS011;13431;51.352;6.412;2023-08-08T06:29:16;5.45;;;2.40;;
25535;SDS011;13431;51.352;6.412;2023-08-08T06:31:43;3.83;;;2.20;;
25535;SDS011;13431;51.352;6.412;2023-08-08T06:34:11;3.10;;;2.35;;
25535;SDS011;13431;51.352;6.412;2023-08-08T06:36:38;3.53;;;2.42;;
25535;SDS011;13431;51.352;6.412;2023-08-08T06:39:05;3.65;;;2.40;;
25535;SDS011;13431;51.352;6.412;2023-08-08T06:41:33;4.45;;;2.60;;
25535;SDS011;13431;51.352;6.412;2023-08-08T06:44:00;2.17;;;2.08;;
25535;SDS011;13431;51.352;6.412;2023-08-08T06:46:28;3.85;;;2.22;;
25535;SDS011;13431;51.352;6.412;2023-08-08T06:48:55;2.90;;;2.00;;
25535;SDS011;13431;51.352;6.412;2023-08-08T06:51:25;3.28;;;2.08;;
25535;SDS011;13431;51.352;6.412;2023-08-08T06:53:52;2.83;;;2.08;;
25535;SDS011;13431;51.352;6.412;2023-08-08T06:56:20;4.13;;;2.30;;
25535;SDS011;13431;51.352;6.412;2023-08-08T06:58:47;4.45;;;2.50;;
25535;SDS011;13431;51.352;6.412;2023-08-08T07:01:14;3.15;;;2.50;;
25535;SDS011;13431;51.352;6.412;2023-08-08T07:03:42;4.00;;;2.50;;
25535;SDS011;13431;51.352;6.412;2023-08-08T07:06:10;3.75;;;2.45;;
25535;SDS011;13431;51.352;6.412;2023-08-08T07:08:38;3.47;;;2.20;;
25535;SDS011;13431;51.352;6.412;2023-08-08T07:11:09;3.05;;;2.50;;
25535;SDS011;13431;51.352;6.412;2023-08-08T07:13:37;2.95;;;2.40;;
25535;SDS011;13431;51.352;6.412;2023-08-08T07:16:04;6.05;;;2.58;;
25535;SDS011;13431;51.352;6.412;2023-08-08T07:18:32;4.32;;;2.38;;
25535;SDS011;13431;51.352;6.412;2023-08-08T07:20:59;3.97;;;2.40;;
25535;SDS011;13431;51.352;6.412;2023-08-08T07:23:27;3.28;;;2.20;;
25535;SDS011;13431;51.352;6.412;2023-08-08T07:25:54;3.25;;;2.40;;
25535;SDS011;13431;51.352;6.412;2023-08-08T07:28:22;4.30;;;2.65;;
25535;SDS011;13431;51.352;6.412;2023-08-08T07:30:49;2.63;;;2.00;;
25535;SDS011;13431;51.352;6.412;2023-08-08T07:33:17;4.70;;;2.10;;
25535;SDS011;13431;51.352;6.412;2023-08-08T07:35:44;3.25;;;2.25;;
25535;SDS011;13431;51.352;6.412;2023-08-08T07:38:12;5.35;;;2.28;;
25535;SDS011;13431;51.352;6.412;2023-08-08T07:40:39;5.63;;;2.42;;
25535;SDS011;13431;51.352;6.412;2023-08-08T07:43:08;2.72;;;2.22;;
25535;SDS011;13431;51.352;6.412;2023-08-08T07:45:35;4.45;;;2.25;;
25535;SDS011;13431;51.352;6.412;2023-08-08T07:48:03;2.65;;;1.88;;
25535;SDS011;13431;51.352;6.412;2023-08-08T07:50:31;5.78;;;2.20;;
25535;SDS011;13431;51.352;6.412;2023-08-08T07:52:59;4.15;;;2.40;;
25535;SDS011;13431;51.352;6.412;2023-08-08T07:55:26;8.88;;;3.03;;
25535;SDS011;13431;51.352;6.412;2023-08-08T07:57:54;4.28;;;2.83;;
25535;SDS011;13431;51.352;6.412;2023-08-08T08:00:21;3.10;;;2.08;;
25535;SDS011;13431;51.352;6.412;2023-08-08T08:02:48;3.13;;;2.28;;
25535;SDS011;13431;51.352;6.412;2023-08-08T08:05:16;3.55;;;2.30;;
25535;SDS011;13431;51.352;6.412;2023-08-08T08:07:43;5.88;;;2.40;;
25535;SDS011;13431;51.352;6.412;2023-08-08T08:10:11;9.95;;;2.65;;
25535;SDS011;13431;51.352;6.412;2023-08-08T08:12:42;5.63;;;2.33;;
25535;SDS011;13431;51.352;6.412;2023-08-08T08:15:09;4.68;;;2.60;;
25535;SDS011;13431;51.352;6.412;2023-08-08T08:17:37;4.80;;;2.65;;
25535;SDS011;13431;51.352;6.412;2023-08-08T08:20:05;6.68;;;3.22;;
25535;SDS011;13431;51.352;6.412;2023-08-08T08:22:37;6.35;;;3.13;;
25535;SDS011;13431;51.352;6.412;2023-08-08T08:25:05;4.88;;;2.75;;
25535;SDS011;13431;51.352;6.412;2023-08-08T08:27:36;6.25;;;2.60;;
25535;SDS011;13431;51.352;6.412;2023-08-08T08:30:04;6.00;;;2.65;;
25535;SDS011;13431;51.352;6.412;2023-08-08T08:32:36;4.90;;;2.33;;
25535;SDS011;13431;51.352;6.412;2023-08-08T08:35:06;4.47;;;2.50;;
25535;SDS011;13431;51.352;6.412;2023-08-08T08:37:34;4.30;;;2.38;;
25535;SDS011;13431;51.352;6.412;2023-08-08T08:40:02;4.35;;;2.58;;
25535;SDS011;13431;51.352;6.412;2023-08-08T08:42:31;5.93;;;2.53;;
25535;SDS011;13431;51.352;6.412;2023-08-08T08:45:01;5.53;;;2.70;;
25535;SDS011;13431;51.352;6.412;2023-08-08T08:47:29;6.45;;;2.63;;
25535;SDS011;13431;51.352;6.412;2023-08-08T08:49:58;5.60;;;2.50;;
25535;SDS011;13431;51.352;6.412;2023-08-08T08:52:25;3.83;;;2.30;;
25535;SDS011;13431;51.352;6.412;2023-08-08T08:54:53;5.03;;;2.47;;
25535;SDS011;13431;51.352;6.412;2023-08-08T08:57:21;8.98;;;2.67;;
25535;SDS011;13431;51.352;6.412;2023-08-08T08:59:50;4.40;;;2.40;;
25535;SDS011;13431;51.352;6.412;2023-08-08T09:02:18;7.22;;;2.58;;
25535;SDS011;13431;51.352;6.412;2023-08-08T09:04:46;7.45;;;2.90;;
25535;SDS011;13431;51.352;6.412;2023-08-08T09:07:13;6.20;;;2.90;;
25535;SDS011;13431;51.352;6.412;2023-08-08T09:09:43;7.32;;;2.65;;
25535;SDS011;13431;51.352;6.412;2023-08-08T09:12:10;5.50;;;2.60;;
25535;SDS011;13431;51.352;6.412;2023-08-08T09:14:40;6.07;;;3.03;;
25535;SDS011;13431;51.352;6.412;2023-08-08T09:17:11;8.60;;;3.60;;
25535;SDS011;13431;51.352;6.412;2023-08-08T09:19:43;6.07;;;2.78;;
25535;SDS011;13431;51.352;6.412;2023-08-08T09:22:12;5.53;;;2.72;;
25535;SDS011;13431;51.352;6.412;2023-08-08T09:24:41;4.35;;;2.45;;
25535;SDS011;13431;51.352;6.412;2023-08-08T09:27:09;5.13;;;2.65;;
25535;SDS011;13431;51.352;6.412;2023-08-08T09:29:40;4.45;;;2.67;;
25535;SDS011;13431;51.352;6.412;2023-08-08T09:32:08;4.05;;;2.47;;
25535;SDS011;13431;51.352;6.412;2023-08-08T09:34:36;3.50;;;2.08;;
25535;SDS011;13431;51.352;6.412;2023-08-08T09:37:03;4.03;;;2.38;;
25535;SDS011;13431;51.352;6.412;2023-08-08T09:39:33;4.95;;;2.35;;
25535;SDS011;13431;51.352;6.412;2023-08-08T09:42:01;4.55;;;2.42;;
25535;SDS011;13431;51.352;6.412;2023-08-08T09:44:31;5.80;;;2.80;;
25535;SDS011;13431;51.352;6.412;2023-08-08T09:47:01;3.65;;;2.10;;
25535;SDS011;13431;51.352;6.412;2023-08-08T09:49:29;5.25;;;2.60;;
25535;SDS011;13431;51.352;6.412;2023-08-08T09:52:01;5.50;;;2.33;;
25535;SDS011;13431;51.352;6.412;2023-08-08T09:54:29;7.13;;;2.45;;
25535;SDS011;13431;51.352;6.412;2023-08-08T09:56:57;3.10;;;2.30;;
25535;SDS011;13431;51.352;6.412;2023-08-08T09:59:26;4.90;;;2.50;;
25535;SDS011;13431;51.352;6.412;2023-08-08T10:01:53;5.00;;;2.65;;
25535;SDS011;13431;51.352;6.412;2023-08-08T10:04:23;3.67;;;2.13;;
25535;SDS011;13431;51.352;6.412;2023-08-08T10:06:51;3.58;;;2.55;;
25535;SDS011;13431;51.352;6.412;2023-08-08T10:09:18;3.70;;;2.35;;
25535;SDS011;13431;51.352;6.412;2023-08-08T10:11:46;4.47;;;2.00;;
25535;SDS011;13431;51.352;6.412;2023-08-08T10:14:15;4.65;;;2.10;;
25535;SDS011;13431;51.352;6.412;2023-08-08T10:16:42;4.20;;;2.30;;
25535;SDS011;13431;51.352;6.412;2023-08-08T10:19:13;5.18;;;2.47;;
25535;SDS011;13431;51.352;6.412;2023-08-08T10:21:41;4.65;;;2.25;;
25535;SDS011;13431;51.352;6.412;2023-08-08T10:24:10;5.65;;;2.40;;
25535;SDS011;13431;51.352;6.412;2023-08-08T10:26:54;3.50;;;1.98;;
25535;SDS011;13431;51.352;6.412;2023-08-08T10:29:27;3.55;;;2.22;;
25535;SDS011;13431;51.352;6.412;2023-08-08T10:32:05;5.10;;;2.50;;
25535;SDS011;13431;51.352;6.412;2023-08-08T10:34:40;3.25;;;1.90;;
25535;SDS011;13431;51.352;6.412;2023-08-08T10:37:12;6.18;;;2.03;;
25535;SDS011;13431;51.352;6.412;2023-08-08T10:39:54;3.20;;;1.63;;
25535;SDS011;13431;51.352;6.412;2023-08-08T10:42:25;2.85;;;1.80;;
25535;SDS011;13431;51.352;6.412;2023-08-08T10:44:54;7.90;;;2.92;;
25535;SDS011;13431;51.352;6.412;2023-08-08T10:47:23;4.50;;;2.10;;
25535;SDS011;13431;51.352;6.412;2023-08-08T10:50:07;4.63;;;2.30;;
25535;SDS011;13431;51.352;6.412;2023-08-08T10:57:57;3.35;;;1.88;;
25535;SDS011;13431;51.352;6.412;2023-08-08T11:00:37;5.68;;;2.70;;
25535;SDS011;13431;51.352;6.412;2023-08-08T11:03:09;4.80;;;2.25;;
25535;SDS011;13431;51.352;6.412;2023-08-08T11:05:37;5.18;;;2.75;;
25535;SDS011;13431;51.352;6.412;2023-08-08T11:08:06;4.28;;;2.22;;
25535;SDS011;13431;51.352;6.412;2023-08-08T11:10:37;4.45;;;2.67;;
25535;SDS011;13431;51.352;6.412;2023-08-08T11:13:06;5.70;;;1.95;;
25535;SDS011;13431;51.352;6.412;2023-08-08T11:15:35;6.68;;;2.40;;
25535;SDS011;13431;51.352;6.412;2023-08-08T11:18:04;2.70;;;2.30;;
25535;SDS011;13431;51.352;6.412;2023-08-08T11:20:32;3.20;;;2.00;;
25535;SDS011;13431;51.352;6.412;2023-08-08T11:23:01;3.95;;;2.90;;
25535;SDS011;13431;51.352;6.412;2023-08-08T11:25:32;5.70;;;2.65;;
25535;SDS011;13431;51.352;6.412;2023-08-08T11:27:59;5.43;;;2.25;;
25535;SDS011;13431;51.352;6.412;2023-08-08T11:30:28;3.50;;;1.90;;
25535;SDS011;13431;51.352;6.412;2023-08-08T11:32:56;4.63;;;2.20;;
25535;SDS011;13431;51.352;6.412;2023-08-08T11:35:27;4.45;;;2.05;;
25535;SDS011;13431;51.352;6.412;2023-08-08T11:37:55;2.95;;;1.95;;
25535;SDS011;13431;51.352;6.412;2023-08-08T11:40:25;4.22;;;2.13;;
25535;SDS011;13431;51.352;6.412;2023-08-08T11:42:56;4.55;;;2.58;;
25535;SDS011;13431;51.352;6.412;2023-08-08T11:45:25;3.97;;;2.08;;
25535;SDS011;13431;51.352;6.412;2023-08-08T11:47:53;3.58;;;2.15;;
25535;SDS011;13431;51.352;6.412;2023-08-08T11:50:25;4.00;;;2.10;;
25535;SDS011;13431;51.352;6.412;2023-08-08T11:52:54;3.67;;;2.00;;
25535;SDS011;13431;51.352;6.412;2023-08-08T11:55:28;6.32;;;2.28;;
25535;SDS011;13431;51.352;6.412;2023-08-08T11:57:56;3.80;;;2.58;;
25535;SDS011;13431;51.352;6.412;2023-08-08T12:00:26;11.02;;;2.38;;
25535;SDS011;13431;51.352;6.412;2023-08-08T12:02:56;4.68;;;1.70;;
25535;SDS011;13431;51.352;6.412;2023-08-08T12:05:25;2.88;;;1.75;;
25535;SDS011;13431;51.352;6.412;2023-08-08T12:07:53;2.78;;;1.88;;
25535;SDS011;13431;51.352;6.412;2023-08-08T12:10:21;4.30;;;2.13;;
25535;SDS011;13431;51.352;6.412;2023-08-08T12:12:54;4.28;;;2.17;;
25535;SDS011;13431;51.352;6.412;2023-08-08T12:15:23;3.88;;;2.00;;
25535;SDS011;13431;51.352;6.412;2023-08-08T12:17:54;6.07;;;2.03;;
25535;SDS011;13431;51.352;6.412;2023-08-08T12:20:22;3.42;;;2.00;;
25535;SDS011;13431;51.352;6.412;2023-08-08T12:22:49;3.15;;;1.95;;
25535;SDS011;13431;51.352;6.412;2023-08-08T12:25:16;3.72;;;1.98;;
25535;SDS011;13431;51.352;6.412;2023-08-08T12:27:44;2.95;;;1.80;;
25535;SDS011;13431;51.352;6.412;2023-08-08T12:30:11;4.15;;;2.33;;
25535;SDS011;13431;51.352;6.412;2023-08-08T12:32:39;3.35;;;1.88;;
25535;SDS011;13431;51.352;6.412;2023-08-08T12:35:06;1.95;;;1.70;;
25535;SDS011;13431;51.352;6.412;2023-08-08T12:37:34;3.15;;;1.58;;
25535;SDS011;13431;51.352;6.412;2023-08-08T12:40:01;2.63;;;2.13;;
25535;SDS011;13431;51.352;6.412;2023-08-08T12:42:31;4.10;;;2.17;;
25535;SDS011;13431;51.352;6.412;2023-08-08T12:44:59;2.15;;;1.85;;
25535;SDS011;13431;51.352;6.412;2023-08-08T12:47:26;3.65;;;2.05;;
25535;SDS011;13431;51.352;6.412;2023-08-08T12:49:53;4.65;;;2.33;;
25535;SDS011;13431;51.352;6.412;2023-08-08T12:52:21;3.90;;;2.25;;
25535;SDS011;13431;51.352;6.412;2023-08-08T12:54:50;3.05;;;2.15;;
25535;SDS011;13431;51.352;6.412;2023-08-08T12:57:17;2.80;;;1.70;;
25535;SDS011;13431;51.352;6.412;2023-08-08T12:59:45;8.77;;;2.15;;
25535;SDS011;13431;51.352;6.412;2023-08-08T13:02:13;5.28;;;2.35;;
25535;SDS011;13431;51.352;6.412;2023-08-08T13:04:40;2.78;;;1.77;;
25535;SDS011;13431;51.352;6.412;2023-08-08T13:07:07;5.70;;;2.25;;
25535;SDS011;13431;51.352;6.412;2023-08-08T13:09:35;3.20;;;2.30;;
25535;SDS011;13431;51.352;6.412;2023-08-08T13:12:03;2.90;;;1.80;;
25535;SDS011;13431;51.352;6.412;2023-08-08T13:14:31;2.38;;;1.80;;
25535;SDS011;13431;51.352;6.412;2023-08-08T13:16:58;3.13;;;1.63;;
25535;SDS011;13431;51.352;6.412;2023-08-08T13:19:25;4.65;;;2.25;;
25535;SDS011;13431;51.352;6.412;2023-08-08T13:21:53;2.95;;;2.05;;
25535;SDS011;13431;51.352;6.412;2023-08-08T13:24:21;3.42;;;1.75;;
25535;SDS011;13431;51.352;6.412;2023-08-08T13:26:52;2.63;;;1.77;;
25535;SDS011;13431;51.352;6.412;2023-08-08T13:29:19;2.88;;;2.03;;
25535;SDS011;13431;51.352;6.412;2023-08-08T13:31:46;3.33;;;1.88;;
25535;SDS011;13431;51.352;6.412;2023-08-08T13:34:14;1.95;;;1.80;;
25535;SDS011;13431;51.352;6.412;2023-08-08T13:36:41;2.92;;;1.83;;
25535;SDS011;13431;51.352;6.412;2023-08-08T13:39:08;2.17;;;1.73;;
25535;SDS011;13431;51.352;6.412;2023-08-08T13:41:37;2.55;;;1.65;;
25535;SDS011;13431;51.352;6.412;2023-08-08T13:44:04;3.05;;;1.92;;
25535;SDS011;13431;51.352;6.412;2023-08-08T13:46:32;2.85;;;1.65;;
25535;SDS011;13431;51.352;6.412;2023-08-08T13:49:00;2.72;;;1.90;;
25535;SDS011;13431;51.352;6.412;2023-08-08T13:51:27;3.10;;;1.65;;
25535;SDS011;13431;51.352;6.412;2023-08-08T13:53:55;2.75;;;1.88;;
25535;SDS011;13431;51.352;6.412;2023-08-08T13:56:22;2.10;;;1.85;;
25535;SDS011;13431;51.352;6.412;2023-08-08T13:58:49;2.42;;;1.70;;
25535;SDS011;13431;51.352;6.412;2023-08-08T14:01:17;2.08;;;1.50;;
25535;SDS011;13431;51.352;6.412;2023-08-08T14:03:44;1.63;;;1.50;;
25535;SDS011;13431;51.352;6.412;2023-08-08T14:06:12;1.55;;;1.45;;
25535;SDS011;13431;51.352;6.412;2023-08-08T14:08:39;2.33;;;1.70;;
25535;SDS011;13431;51.352;6.412;2023-08-08T14:11:06;1.75;;;1.48;;
25535;SDS011;13431;51.352;6.412;2023-08-08T14:13:34;2.40;;;1.60;;
25535;SDS011;13431;51.352;6.412;2023-08-08T14:16:02;1.45;;;1.35;;
25535;SDS011;13431;51.352;6.412;2023-08-08T14:18:29;3.40;;;1.80;;
25535;SDS011;13431;51.352;6.412;2023-08-08T14:20:57;1.58;;;1.35;;
25535;SDS011;13431;51.352;6.412;2023-08-08T14:23:24;1.85;;;1.70;;
25535;SDS011;13431;51.352;6.412;2023-08-08T14:25:51;1.48;;;1.38;;
25535;SDS011;13431;51.352;6.412;2023-08-08T14:28:19;3.28;;;1.80;;
25535;SDS011;13431;51.352;6.412;2023-08-08T14:30:49;2.08;;;1.55;;
25535;SDS011;13431;51.352;6.412;2023-08-08T14:33:16;1.98;;;1.25;;
25535;SDS011;13431;51.352;6.412;2023-08-08T14:35:43;1.50;;;1.40;;
25535;SDS011;13431;51.352;6.412;2023-08-08T14:38:11;1.90;;;1.10;;
25535;SDS011;13431;51.352;6.412;2023-08-08T14:40:38;2.55;;;1.30;;
25535;SDS011;13431;51.352;6.412;2023-08-08T14:43:05;3.53;;;1.55;;
25535;SDS011;13431;51.352;6.412;2023-08-08T14:45:37;2.70;;;1.52;;
25535;SDS011;13431;51.352;6.412;2023-08-08T14:48:05;1.95;;;1.45;;
25535;SDS011;13431;51.352;6.412;2023-08-08T14:50:33;1.60;;;1.50;;
25535;SDS011;13431;51.352;6.412;2023-08-08T14:53:01;1.83;;;1.15;;
25535;SDS011;13431;51.352;6.412;2023-08-08T14:55:29;2.33;;;1.60;;
25535;SDS011;13431;51.352;6.412;2023-08-08T14:57:56;4.45;;;1.17;;
25535;SDS011;13431;51.352;6.412;2023-08-08T15:00:23;1.95;;;1.20;;